createdAt,value
2022-10-20T00:01:06.605Z,101778.03
2022-10-20T00:03:38.632Z,101773.59
2022-10-20T00:06:22.408Z,101769.16
2022-10-20T00:08:56.027Z,101758.59
2022-10-20T00:11:28.556Z,101768.25
2022-10-20T00:14:01.445Z,101762.97
2022-10-20T00:16:36.369Z,101769.09
2022-10-20T00:19:07.738Z,101766.44
2022-10-20T00:21:39.032Z,101757.63
2022-10-20T00:24:10.336Z,101765.53
2022-10-20T00:26:41.586Z,101765.50
2022-10-20T00:29:13.052Z,101757.56
2022-10-20T00:31:44.432Z,101740.72
2022-10-20T00:34:15.735Z,101748.69
2022-10-20T00:36:50.404Z,101735.38
2022-10-20T00:39:22.754Z,101739.88
2022-10-20T00:42:28.189Z,101746.88
2022-10-20T00:45:00.960Z,101739.78
2022-10-20T00:48:06.646Z,101727.44
2022-10-20T00:50:42.598Z,101719.47
2022-10-20T00:53:14.745Z,101721.22
2022-10-20T00:55:48.724Z,101710.63
2022-10-20T00:58:20.277Z,101715.84
2022-10-20T01:00:56.388Z,101714.91
2022-10-20T01:03:34.566Z,101706.06
2022-10-20T01:06:06.252Z,101698.97
2022-10-20T01:08:37.820Z,101688.25
2022-10-20T01:11:18.441Z,101689.03
2022-10-20T01:14:14.932Z,101690.81
2022-10-20T01:17:07.430Z,101698.72
2022-10-20T01:20:07.444Z,101695.16
2022-10-20T01:22:41.674Z,101689.78
2022-10-20T01:25:51.863Z,101697.66
2022-10-20T01:28:33.940Z,101683.53
2022-10-20T01:31:14.303Z,101679.06
2022-10-20T01:33:59.828Z,101676.41
2022-10-20T01:36:50.342Z,101669.34
2022-10-20T01:39:34.788Z,101667.53
2022-10-20T01:42:12.338Z,101667.50
2022-10-20T01:44:46.224Z,101656.91
2022-10-20T01:47:19.572Z,101654.16
2022-10-20T01:49:52.216Z,101648.88
2022-10-20T01:52:24.758Z,101647.97
2022-10-20T01:54:56.016Z,101641.75
2022-10-20T01:57:55.757Z,101639.97
2022-10-20T02:00:27.366Z,101627.53
2022-10-20T02:03:07.456Z,101623.22
2022-10-20T02:05:52.835Z,101621.41
2022-10-20T02:08:36.641Z,101619.66
2022-10-20T02:11:15.942Z,101616.16
2022-10-20T02:13:49.590Z,101619.66
2022-10-20T02:16:29.604Z,101616.09
2022-10-20T02:19:01.905Z,101614.31
2022-10-20T02:21:33.432Z,101616.06
2022-10-20T02:24:08.493Z,101605.50
2022-10-20T02:26:40.354Z,101562.13
2022-10-20T02:29:15.965Z,101591.41
2022-10-20T02:31:47.591Z,101600.16
2022-10-20T02:34:18.869Z,101594.88
2022-10-20T02:36:50.177Z,101585.03
2022-10-20T02:39:21.548Z,101589.44
2022-10-20T02:41:52.874Z,101604.47
2022-10-20T02:44:24.185Z,101598.34
2022-10-20T02:46:55.424Z,101600.06
2022-10-20T02:49:27.389Z,101597.44
2022-10-20T02:51:58.869Z,101595.63
2022-10-20T02:54:30.157Z,101592.97
2022-10-20T02:57:01.428Z,101589.44
2022-10-20T02:59:33.253Z,101593.84
2022-10-20T03:02:04.694Z,101592.09
2022-10-20T03:04:36.065Z,101579.66
2022-10-20T03:07:07.312Z,101592.94
2022-10-20T03:09:38.672Z,101589.44
2022-10-20T03:12:10.033Z,101576.13
2022-10-20T03:14:42.754Z,101581.44
2022-10-20T03:17:14.062Z,101583.22
2022-10-20T03:19:45.372Z,101567.34
2022-10-20T03:22:16.662Z,101575.31
2022-10-20T03:24:47.938Z,101568.25
2022-10-20T03:27:19.330Z,101564.72
2022-10-20T03:29:50.581Z,101570.03
2022-10-20T03:32:21.850Z,101560.34
2022-10-20T03:34:53.228Z,101556.84
2022-10-20T03:37:24.565Z,101534.72
2022-10-20T03:39:55.823Z,101535.66
2022-10-20T03:42:27.074Z,101550.69
2022-10-20T03:44:58.337Z,101541.91
2022-10-20T03:47:29.636Z,101544.53
2022-10-20T03:50:00.975Z,101539.22
2022-10-20T03:52:32.271Z,101540.09
2022-10-20T03:55:03.873Z,101536.59
2022-10-20T03:57:35.518Z,101544.44
2022-10-20T04:00:07.609Z,101538.28
2022-10-20T04:02:45.214Z,101544.38
2022-10-20T04:05:19.790Z,101536.41
2022-10-20T04:07:51.046Z,101532.91
2022-10-20T04:10:22.333Z,101511.63
2022-10-20T04:12:57.045Z,101517.94
2022-10-20T04:15:29.790Z,101516.06
2022-10-20T04:18:01.057Z,101527.56
2022-10-20T04:20:32.369Z,101519.63
2022-10-20T04:23:03.664Z,101525.75
2022-10-20T04:25:34.948Z,101521.28
2022-10-20T04:28:06.204Z,101524.03
2022-10-20T04:30:39.118Z,101508.16
2022-10-20T04:33:11.894Z,101505.59
2022-10-20T04:35:43.584Z,101502.06
2022-10-20T04:38:14.904Z,101493.25
2022-10-20T04:40:54.016Z,101472.06
2022-10-20T04:43:25.807Z,101494.97
2022-10-20T04:46:07.928Z,101487.84
2022-10-20T04:48:43.470Z,101484.38
2022-10-20T04:51:15.875Z,101484.34
2022-10-20T04:53:47.468Z,101477.31
2022-10-20T04:56:20.689Z,101478.19
2022-10-20T04:58:54.714Z,101469.41
2022-10-20T05:01:29.249Z,101472.88
2022-10-20T05:04:00.689Z,101472.00
2022-10-20T05:06:33.813Z,101458.81
2022-10-20T05:09:07.007Z,101456.16
2022-10-20T05:11:38.580Z,101421.63
2022-10-20T05:14:09.967Z,101443.78
2022-10-20T05:16:41.361Z,101438.59
2022-10-20T05:19:12.727Z,101423.56
2022-10-20T05:21:44.250Z,101434.19
2022-10-20T05:24:20.802Z,101423.63
2022-10-20T05:26:54.429Z,101413.88
2022-10-20T05:29:25.765Z,101421.97
2022-10-20T05:31:57.173Z,101416.72
2022-10-20T05:34:28.718Z,101421.97
2022-10-20T05:37:00.054Z,101407.06
2022-10-20T05:39:31.370Z,101411.44
2022-10-20T05:42:02.664Z,101409.72
2022-10-20T05:44:33.991Z,101408.91
2022-10-20T05:47:05.300Z,101404.53
2022-10-20T05:49:36.588Z,101406.25
2022-10-20T05:52:08.004Z,101400.97
2022-10-20T05:54:39.337Z,101393.06
2022-10-20T05:57:10.972Z,101403.63
2022-10-20T05:59:42.417Z,101396.66
2022-10-20T06:02:14.244Z,101393.16
2022-10-20T06:04:45.811Z,101390.53
2022-10-20T06:07:17.169Z,101389.56
2022-10-20T06:09:48.440Z,101403.75
2022-10-20T06:12:20.817Z,101399.34
2022-10-20T06:14:52.085Z,101399.22
2022-10-20T06:17:23.807Z,101413.44
2022-10-20T06:19:55.085Z,101403.81
2022-10-20T06:22:26.337Z,101410.88
2022-10-20T06:24:57.784Z,101391.50
2022-10-20T06:27:29.128Z,101396.72
2022-10-20T06:30:00.478Z,101413.56
2022-10-20T06:32:32.079Z,101387.16
2022-10-20T06:35:03.614Z,101402.22
2022-10-20T06:37:35.037Z,101400.50
2022-10-20T06:40:07.021Z,101397.94
2022-10-20T06:42:38.928Z,101399.75
2022-10-20T06:45:12.282Z,101391.78
2022-10-20T06:47:46.746Z,101398.06
2022-10-20T06:50:18.069Z,101393.75
2022-10-20T06:52:49.404Z,101390.34
2022-10-20T06:55:20.678Z,101384.31
2022-10-20T06:57:52.106Z,101368.56
2022-10-20T07:00:23.507Z,101379.22
2022-10-20T07:02:54.870Z,101370.41
2022-10-20T07:05:26.261Z,101383.75
2022-10-20T07:07:57.561Z,101374.16
2022-10-20T07:10:28.977Z,101358.50
2022-10-20T07:13:00.233Z,101373.53
2022-10-20T07:15:31.518Z,101378.03
2022-10-20T07:18:02.853Z,101379.88
2022-10-20T07:20:34.120Z,101372.94
2022-10-20T07:23:05.617Z,101355.44
2022-10-20T07:25:37.110Z,101359.06
2022-10-20T07:28:08.834Z,101359.94
2022-10-20T07:30:41.441Z,101351.19
2022-10-20T07:33:12.798Z,101364.44
2022-10-20T07:35:44.142Z,101363.63
2022-10-20T07:38:15.614Z,101366.38
2022-10-20T07:40:47.023Z,101354.13
2022-10-20T07:43:18.722Z,101350.66
2022-10-20T07:45:49.992Z,101357.78
2022-10-20T07:48:21.280Z,101349.94
2022-10-20T07:50:52.584Z,101350.91
2022-10-20T07:53:23.845Z,101339.56
2022-10-20T07:55:55.136Z,101337.00
2022-10-20T07:58:26.482Z,101322.06
2022-10-20T08:00:57.842Z,101303.63
2022-10-20T08:03:29.243Z,101282.50
2022-10-20T08:06:00.685Z,101298.41
2022-10-20T08:08:33.049Z,101285.25
2022-10-20T08:11:05.718Z,101276.50
2022-10-20T08:13:39.476Z,101257.13
2022-10-20T08:16:17.781Z,101250.09
2022-10-20T08:19:03.031Z,101247.47
2022-10-20T08:21:34.458Z,101251.91
2022-10-20T08:24:06.252Z,101253.66
2022-10-20T08:26:37.538Z,101251.00
2022-10-20T08:29:09.164Z,101241.31
2022-10-20T08:31:40.579Z,101237.72
2022-10-20T08:34:11.909Z,101238.56
2022-10-20T08:36:43.422Z,101239.44
2022-10-20T08:39:14.766Z,101240.25
2022-10-20T08:42:06.992Z,101232.22
2022-10-20T08:44:44.283Z,101231.25
2022-10-20T08:47:35.148Z,101226.75
2022-10-20T08:50:10.105Z,101224.03
2022-10-20T08:52:42.694Z,101221.25
2022-10-20T08:55:25.847Z,101205.25
2022-10-20T08:58:04.949Z,101213.09
2022-10-20T09:00:37.809Z,101200.53
2022-10-20T09:03:21.719Z,101188.91
2022-10-20T09:05:58.944Z,101187.88
2022-10-20T09:08:32.029Z,101200.13
2022-10-20T09:11:07.423Z,101192.88
2022-10-20T09:13:38.907Z,101194.44
2022-10-20T09:16:33.359Z,101184.66
2022-10-20T09:19:18.014Z,101197.72
2022-10-20T09:21:56.149Z,101209.09
2022-10-20T09:24:30.619Z,101201.03
2022-10-20T09:27:24.738Z,101202.63
2022-10-20T09:29:56.036Z,101206.06
2022-10-20T09:32:56.259Z,101184.81
2022-10-20T09:35:32.691Z,101195.13
2022-10-20T09:38:09.991Z,101193.13
2022-10-20T09:40:57.172Z,101192.09
2022-10-20T09:43:28.577Z,101188.50
2022-10-20T09:46:06.718Z,101201.50
2022-10-20T09:48:47.695Z,101183.81
2022-10-20T09:51:23.005Z,101186.34
2022-10-20T09:54:03.331Z,101178.16
2022-10-20T09:56:37.706Z,101171.91
2022-10-20T09:59:32.632Z,101166.50
2022-10-20T10:02:23.859Z,101162.78
2022-10-20T10:05:14.400Z,101152.88
2022-10-20T10:07:57.895Z,101138.59
2022-10-20T10:10:31.089Z,101148.22
2022-10-20T10:15:43.320Z,101141.88
2022-10-20T10:18:22.781Z,101144.75
2022-10-20T10:21:00.620Z,101141.19
2022-10-20T10:23:36.408Z,101141.91
2022-10-20T10:26:34.522Z,101135.50
2022-10-20T10:29:27.411Z,101121.94
2022-10-20T10:32:01.834Z,101111.03
2022-10-20T10:34:50.509Z,101108.09
2022-10-20T10:39:58.187Z,101110.50
2022-10-20T10:42:48.085Z,101108.59
2022-10-20T10:45:51.422Z,101101.50
2022-10-20T10:48:50.561Z,101087.25
2022-10-20T10:51:32.686Z,101100.56
2022-10-20T10:54:27.836Z,101087.09
2022-10-20T10:57:22.692Z,101080.78
2022-10-20T10:59:55.734Z,101071.84
2022-10-20T11:02:56.898Z,101072.56
2022-10-20T11:05:52.117Z,101060.84
2022-10-20T11:08:34.997Z,101056.84
2022-10-20T11:11:24.619Z,101063.63
2022-10-20T11:14:06.229Z,101057.03
2022-10-20T11:17:05.008Z,101037.22
2022-10-20T11:19:51.791Z,101049.31
2022-10-20T11:22:36.482Z,101046.06
2022-10-20T11:25:22.997Z,101046.66
2022-10-20T11:27:56.400Z,101043.69
2022-10-20T11:30:30.442Z,101038.94
2022-10-20T11:33:14.680Z,101040.47
2022-10-20T11:35:54.363Z,101018.16
2022-10-20T11:38:44.562Z,101018.06
2022-10-20T11:41:22.582Z,101025.13
2022-10-20T11:44:26.641Z,101010.81
2022-10-20T11:47:03.446Z,101000.38
2022-10-20T11:49:34.973Z,101005.47
2022-10-20T11:52:28.341Z,100993.72
2022-10-20T11:55:02.757Z,100985.59
2022-10-20T11:57:45.802Z,100981.13
2022-10-20T12:03:10.004Z,100970.28
2022-10-20T12:06:15.598Z,100961.53
2022-10-20T12:09:11.802Z,100943.03
2022-10-20T12:11:57.297Z,100932.59
2022-10-20T12:14:31.617Z,100940.66
2022-10-20T12:17:29.340Z,100925.53
2022-10-20T12:20:22.726Z,100914.53
2022-10-20T12:22:58.938Z,100905.41
2022-10-20T12:25:30.273Z,100919.28
2022-10-20T12:28:20.200Z,100911.88
2022-10-20T12:30:58.106Z,100905.38
2022-10-20T12:33:49.533Z,100900.81
2022-10-20T12:36:27.899Z,100902.31
2022-10-20T12:39:18.157Z,100895.06
2022-10-20T12:42:01.443Z,100894.97
2022-10-20T12:44:44.365Z,100902.84
2022-10-20T12:47:25.178Z,100895.06
2022-10-20T12:50:01.278Z,100897.63
2022-10-20T12:52:37.953Z,100897.47
2022-10-20T12:55:25.422Z,100892.06
2022-10-20T12:58:18.591Z,100874.22
2022-10-20T13:00:49.906Z,100881.25
2022-10-20T13:03:44.049Z,100866.91
2022-10-20T13:06:39.962Z,100854.34
2022-10-20T13:09:19.238Z,100846.25
2022-10-20T13:11:57.254Z,100850.69
2022-10-20T13:14:40.823Z,100856.03
2022-10-20T13:17:18.964Z,100826.94
2022-10-20T13:20:01.169Z,100846.47
2022-10-20T13:22:38.970Z,100837.84
2022-10-20T13:25:19.436Z,100852.94
2022-10-20T13:27:50.767Z,100859.16
2022-10-20T13:30:22.838Z,100854.50
2022-10-20T13:33:38.861Z,100853.63
2022-10-20T13:36:40.852Z,100839.38
2022-10-20T13:39:18.680Z,100844.84
2022-10-20T13:42:12.094Z,100836.16
2022-10-20T13:45:14.902Z,100822.84
2022-10-20T13:47:56.283Z,100805.22
2022-10-20T13:50:31.988Z,100812.97
2022-10-20T13:53:14.895Z,100818.38
2022-10-20T13:56:01.774Z,100814.91
2022-10-20T13:58:34.019Z,100819.44
2022-10-20T14:01:19.163Z,100832.06
2022-10-20T14:03:51.429Z,100816.31
2022-10-20T14:06:34.284Z,100822.69
2022-10-20T14:09:25.571Z,100810.56
2022-10-20T14:12:04.462Z,100816.03
2022-10-20T14:14:35.848Z,100830.53
2022-10-20T14:17:08.324Z,100815.75
2022-10-20T14:19:41.316Z,100816.94
2022-10-20T14:22:23.308Z,100803.16
2022-10-20T14:24:56.793Z,100807.13
2022-10-20T14:27:31.110Z,100805.63
2022-10-20T14:30:06.581Z,100810.34
2022-10-20T14:32:40.354Z,100807.91
2022-10-20T14:35:18.412Z,100807.28
2022-10-20T14:37:58.226Z,100792.59
2022-10-20T14:40:35.510Z,100789.13
2022-10-20T14:43:14.648Z,100803.53
2022-10-20T14:45:54.296Z,100810.00
2022-10-20T14:48:41.265Z,100821.72
2022-10-20T14:51:29.820Z,100811.28
2022-10-20T14:54:19.400Z,100813.22
2022-10-20T14:57:24.731Z,100824.06
2022-10-20T15:00:03.614Z,100805.63
2022-10-20T15:02:41.911Z,100805.84
2022-10-20T15:05:43.465Z,100796.19
2022-10-20T15:08:14.706Z,100798.91
2022-10-20T15:10:46.511Z,100774.94
2022-10-20T15:13:31.974Z,100780.28
2022-10-20T15:16:04.529Z,100781.22
2022-10-20T15:18:39.434Z,100778.69
2022-10-20T15:21:11.858Z,100795.66
2022-10-20T15:23:43.127Z,100786.00
2022-10-20T15:26:14.904Z,100786.16
2022-10-20T15:28:49.012Z,100791.59
2022-10-20T15:31:30.747Z,100783.66
2022-10-20T15:34:02.193Z,100798.91
2022-10-20T15:36:34.593Z,100791.91
2022-10-20T15:39:05.939Z,100795.59
2022-10-20T15:41:37.784Z,100802.75
2022-10-20T15:44:23.771Z,100801.13
2022-10-20T15:46:55.144Z,100794.09
2022-10-20T15:49:26.423Z,100797.72
2022-10-20T15:51:57.921Z,100804.00
2022-10-20T15:54:29.190Z,100798.72
2022-10-20T15:57:00.513Z,100794.34
2022-10-20T15:59:31.839Z,100790.88
2022-10-20T16:02:03.162Z,100790.88
2022-10-20T16:04:34.433Z,100791.81
2022-10-20T16:07:05.702Z,100785.63
2022-10-20T16:09:36.946Z,100782.13
2022-10-20T16:12:10.094Z,100779.53
2022-10-20T16:14:42.362Z,100783.09
2022-10-20T16:17:13.738Z,100784.81
2022-10-20T16:19:44.989Z,100789.22
2022-10-20T16:22:16.312Z,100790.09
2022-10-20T16:24:47.817Z,100774.19
2022-10-20T16:27:19.346Z,100770.78
2022-10-20T16:29:50.792Z,100754.22
2022-10-20T16:32:22.323Z,100769.16
2022-10-20T16:34:53.608Z,100757.81
2022-10-20T16:37:25.394Z,100761.22
2022-10-20T16:39:56.834Z,100752.41
2022-10-20T16:42:30.137Z,100746.16
2022-10-20T16:45:01.601Z,100751.50
2022-10-20T16:47:33.269Z,100750.56
2022-10-20T16:50:05.245Z,100727.69
2022-10-20T16:52:36.509Z,100737.34
2022-10-20T16:55:08.463Z,100734.69
2022-10-20T16:57:40.313Z,100729.34
2022-10-20T17:00:12.456Z,100729.34
2022-10-20T17:02:47.268Z,100725.78
2022-10-20T17:05:19.754Z,100725.78
2022-10-20T17:07:51.062Z,100729.34
2022-10-20T17:10:22.330Z,100724.94
2022-10-20T17:12:53.812Z,100717.81
2022-10-20T17:15:25.187Z,100714.25
2022-10-20T17:17:56.470Z,100702.88
2022-10-20T17:20:27.742Z,100704.47
2022-10-20T17:22:59.167Z,100709.84
2022-10-20T17:25:33.643Z,100708.97
2022-10-20T17:28:04.991Z,100699.16
2022-10-20T17:30:40.976Z,100688.44
2022-10-20T17:33:14.084Z,100687.56
2022-10-20T17:35:48.328Z,100684.03
2022-10-20T17:38:19.912Z,100681.41
2022-10-20T17:40:51.453Z,100664.97
2022-10-20T17:43:22.962Z,100684.44
2022-10-20T17:45:59.684Z,100669.63
2022-10-20T17:48:31.573Z,100673.53
2022-10-20T17:51:07.721Z,100656.13
2022-10-20T17:53:40.623Z,100659.03
2022-10-20T17:56:15.860Z,100653.16
2022-10-20T17:58:49.421Z,100674.53
2022-10-20T18:01:29.953Z,100674.66
2022-10-20T18:04:10.721Z,100673.94
2022-10-20T18:06:43.814Z,100664.31
2022-10-20T18:09:17.429Z,100659.22
2022-10-20T18:11:51.182Z,100657.47
2022-10-20T18:14:22.547Z,100669.91
2022-10-20T18:16:53.916Z,100670.88
2022-10-20T18:19:25.275Z,100669.16
2022-10-20T18:21:56.695Z,100666.56
2022-10-20T18:24:28.041Z,100651.63
2022-10-20T18:26:59.350Z,100658.63
2022-10-20T18:29:30.634Z,100663.03
2022-10-20T18:32:02.032Z,100663.06
2022-10-20T18:34:33.335Z,100657.84
2022-10-20T18:37:04.804Z,100648.13
2022-10-20T18:39:36.349Z,100644.50
2022-10-20T18:42:07.638Z,100639.03
2022-10-20T18:44:38.993Z,100636.38
2022-10-20T18:47:11.333Z,100631.13
2022-10-20T18:49:42.648Z,100628.50
2022-10-20T18:52:13.993Z,100623.19
2022-10-20T18:54:45.258Z,100614.34
2022-10-20T18:57:16.617Z,100607.31
2022-10-20T18:59:49.809Z,100614.50
2022-10-20T19:02:21.073Z,100620.72
2022-10-20T19:04:52.406Z,100621.66
2022-10-20T19:07:23.828Z,100628.75
2022-10-20T19:09:55.658Z,100639.41
2022-10-20T19:12:26.989Z,100630.59
2022-10-20T19:14:58.372Z,100623.56
2022-10-20T19:17:29.723Z,100615.69
2022-10-20T19:20:01.075Z,100618.50
2022-10-20T19:22:32.417Z,100609.69
2022-10-20T19:25:04.067Z,100608.88
2022-10-20T19:27:35.366Z,100607.13
2022-10-20T19:30:06.982Z,100595.66
2022-10-20T19:32:41.521Z,100611.63
2022-10-20T19:35:14.872Z,100584.38
2022-10-20T19:37:46.249Z,100585.22
2022-10-20T19:40:17.511Z,100586.06
2022-10-20T19:42:48.773Z,100599.31
2022-10-20T19:45:20.034Z,100594.88
2022-10-20T19:47:51.349Z,100594.84
2022-10-20T19:50:22.593Z,100584.25
2022-10-20T19:52:57.899Z,100585.94
2022-10-20T19:55:30.317Z,100574.38
2022-10-20T19:58:01.693Z,100570.00
2022-10-20T20:00:36.843Z,100562.94
2022-10-20T20:03:08.188Z,100555.88
2022-10-20T20:05:39.522Z,100548.84
2022-10-20T20:08:10.936Z,100532.94
2022-10-20T20:10:51.382Z,100545.31
2022-10-20T20:13:24.124Z,100548.81
2022-10-20T20:15:55.464Z,100530.22
2022-10-20T20:18:26.717Z,100543.50
2022-10-20T20:21:02.619Z,100549.69
2022-10-20T20:23:47.635Z,100562.94
2022-10-20T20:26:30.456Z,100552.31
2022-10-20T20:29:02.256Z,100558.41
2022-10-20T20:31:33.986Z,100543.44
2022-10-20T20:34:05.301Z,100564.47
2022-10-20T20:36:36.654Z,100552.16
2022-10-20T20:39:08.876Z,100544.03
2022-10-20T20:41:40.160Z,100499.13
2022-10-20T20:44:11.466Z,100539.63
2022-10-20T20:46:42.753Z,100519.56
2022-10-20T20:49:14.230Z,100537.09
2022-10-20T20:51:45.514Z,100540.63
2022-10-20T20:54:17.948Z,100540.59
2022-10-20T20:56:49.226Z,100536.31
2022-10-20T20:59:20.472Z,100554.78
2022-10-20T21:01:51.826Z,100552.16
2022-10-20T21:04:24.762Z,100552.97
2022-10-20T21:07:02.641Z,100540.66
2022-10-20T21:09:34.725Z,100545.03
2022-10-20T21:12:06.132Z,100547.66
2022-10-20T21:14:37.465Z,100541.47
2022-10-20T21:17:08.821Z,100539.72
2022-10-20T21:19:40.063Z,100538.03
2022-10-20T21:22:11.349Z,100524.81
2022-10-20T21:24:42.590Z,100514.34
2022-10-20T21:27:13.841Z,100532.00
2022-10-20T21:29:46.360Z,100525.84
2022-10-20T21:32:18.418Z,100508.19
2022-10-20T21:34:49.773Z,100502.88
2022-10-20T21:37:21.654Z,100493.31
2022-10-20T21:39:52.895Z,100502.09
2022-10-20T21:42:24.306Z,100500.34
2022-10-20T21:44:55.580Z,100499.47
2022-10-20T21:47:26.880Z,100504.78
2022-10-20T21:49:58.110Z,100508.38
2022-10-20T21:52:29.386Z,100510.09
2022-10-20T21:55:00.738Z,100503.91
2022-10-20T21:57:32.009Z,100505.69
2022-10-20T22:00:04.616Z,100489.97
2022-10-20T22:02:36.268Z,100517.22
2022-10-20T22:05:07.754Z,100504.88
2022-10-20T22:07:39.295Z,100507.50
2022-10-20T22:10:10.870Z,100498.81
2022-10-20T22:12:42.123Z,100505.78
2022-10-20T22:15:13.370Z,100498.00
2022-10-20T22:17:44.629Z,100497.94
2022-10-20T22:20:15.967Z,100515.69
2022-10-20T22:22:47.778Z,100517.53
2022-10-20T22:25:19.164Z,100499.16
2022-10-20T22:27:50.505Z,100498.31
2022-10-20T22:30:21.882Z,100514.22
2022-10-20T22:32:53.124Z,100510.75
2022-10-20T22:35:24.409Z,100507.28
2022-10-20T22:37:55.673Z,100499.38
2022-10-20T22:40:26.956Z,100501.22
2022-10-20T22:42:58.219Z,100498.63
2022-10-20T22:45:29.563Z,100476.78
2022-10-20T22:48:00.849Z,100497.84
2022-10-20T22:50:32.695Z,100501.50
2022-10-20T22:53:03.961Z,100514.72
2022-10-20T22:55:35.224Z,100517.47
2022-10-20T22:58:06.535Z,100524.63
2022-10-20T23:00:42.113Z,100520.28
2022-10-20T23:03:13.501Z,100522.16
2022-10-20T23:05:44.746Z,100504.63
2022-10-20T23:08:16.034Z,100514.34
2022-10-20T23:10:56.064Z,100520.53
2022-10-20T23:13:27.312Z,100533.84
2022-10-20T23:15:58.556Z,100524.13
2022-10-20T23:18:29.834Z,100523.22
2022-10-20T23:21:01.581Z,100518.75
2022-10-20T23:23:36.369Z,100520.41
2022-10-20T23:26:08.816Z,100528.34
2022-10-20T23:28:40.566Z,100521.19
2022-10-20T23:31:16.753Z,100498.34
2022-10-20T23:33:49.501Z,100520.16
2022-10-20T23:36:21.694Z,100503.44
2022-10-20T23:38:53.290Z,100506.00
2022-10-20T23:41:24.554Z,100503.31
2022-10-20T23:43:55.902Z,100497.00
2022-10-20T23:46:31.573Z,100495.06
2022-10-20T23:49:03.844Z,100484.44
2022-10-20T23:51:35.268Z,100493.94
2022-10-20T23:54:06.553Z,100497.38
2022-10-20T23:56:37.867Z,100490.25
2022-10-20T23:59:09.666Z,100485.84
